Silver Lake, IN (46982)

3:11 AM EDT on May 01, 2017 (GMT -0400)
Little Family Farms | | Change Station

Elev 830 ft 41.04 °N, 85.82 °W | Updated 14 minutes ago

Rain
Rain
65.6 °F
Feels Like 65.6 °F
N
8.0
Wind Variable Wind from South
Gusts 17.0 mph

Today
High -- | Low -- °F
--% Chance of Precip.
Yesterday
High -- | Low -- °F
Precip. -- in
Pressure 29.57 in
Visibility 10.0 miles
Clouds Mostly Cloudy 2400 ft
Mostly Cloudy 3600 ft
Overcast 4300 ft
Dew Point 63 °F
Humidity 90%
Rainfall 0.00 in
Snow Depth Not available.
6:41 AM 8:40 PM
Waxing Crescent, 30% visible
METAR KASW 010635Z AUTO 18009G15KT 137V227 10SM BKN024 BKN036 OVC043 19/16 A2957 RMK AO2
Pressure 29.57 in
Visibility 10.0 miles
Clouds Mostly Cloudy 2400 ft
Mostly Cloudy 3600 ft
Overcast 4300 ft
Dew Point 63 °F
Humidity 90%
Rainfall 0.00 in
Snow Depth Not available.
6:41 AM 8:40 PM
Waxing Crescent, 30% visible
METAR KASW 010635Z AUTO 18009G15KT 137V227 10SM BKN024 BKN036 OVC043 19/16 A2957 RMK AO2

Get Severe Weather Alerts

Thanks for signing up!

Be on the lookout for a verification email in your inbox.

You'll start receiving the daily forecast at 8 AM.

×

10-Day Weather Forecast

Almanac

Astronomy

May. 01, 2017 Rise Set
Actual Time
Civil Twilight
Nautical Twilight
Astronomical Twilight
Moon
Length of Visible Light
Length of Day
Tomorrow will be .
, % of the Moon is Illuminated

Today's Extremes

State Highs State Lows

Community

WunderPhotos

WunderBlog® & News

Nearby

Air Quality

  Air Quality AQ Index Pollutant
Not available.

Snow Depth

Station Depth Elevation

Earthquake Activity

City Distance Mag. Time & Date
Minimum magnitude displayed is 2.5.

Coastal Water Temperatures

Place Temperature

Stations

Nearby Weather Stations

Station Location Temp. Windchill Dew Point Humidity Wind Precip. Elev Updated Type
                   

Watches & Warnings

There are currently no watches in effect.